Terminal Aerodrome Forecast
Issued by NWS Sioux Falls, SD

Home | Current Version | Previous Version | Graphics & Text | Print | Product List | Glossary Off
Versions: 1 2 3 4 5 6 7 8 9 10 11 12 13 14 15 16 17 18 19 20 21

000
FTUS43 KFSD 201144
TAFFSD
TAF
KFSD 201144Z 2012/2112 16012KT P6SM VCTS OVC015CB
      TEMPO 2012/2013 4SM SHRA BR OVC009
     FM201300 16013KT 6SM BR OVC012
      TEMPO 2013/2014 4SM -SHRA OVC009
     FM201400 17011KT P6SM OVC008
     FM201700 20011KT P6SM OVC015
     FM201900 28011KT P6SM BKN080
     FM202100 29012KT P6SM SCT090
     FM210700 23005KT P6SM SKC=

USA.gov is the U.S. government's official web portal to all federal, state and local government web resources and services.